createdAt,value
2018-08-18T00:01:29.719Z,40
2018-08-18T00:11:28.812Z,42
2018-08-18T00:21:27.587Z,43
2018-08-18T00:31:28.320Z,42
2018-08-18T00:41:27.360Z,42
2018-08-18T00:51:27.592Z,45
2018-08-18T01:01:27.569Z,43
2018-08-18T01:11:29.093Z,42
2018-08-18T01:21:29.761Z,42
2018-08-18T01:31:27.962Z,45
2018-08-18T01:41:27.129Z,46
2018-08-18T01:51:27.786Z,43
2018-08-18T02:01:29.454Z,43
2018-08-18T02:11:27.426Z,43
2018-08-18T02:21:27.539Z,46
2018-08-18T02:31:27.970Z,43
2018-08-18T02:41:27.570Z,45
2018-08-18T02:51:27.931Z,46
2018-08-18T03:01:27.300Z,44
2018-08-18T03:11:29.582Z,43
2018-08-18T03:21:27.662Z,44
2018-08-18T03:31:28.474Z,44
2018-08-18T03:41:27.691Z,47
2018-08-18T03:51:28.421Z,44
2018-08-18T04:01:29.456Z,44
2018-08-18T04:11:28.119Z,46
2018-08-18T04:21:27.331Z,45
2018-08-18T04:31:28.066Z,45
2018-08-18T04:41:27.297Z,48
2018-08-18T04:51:27.317Z,46
2018-08-18T05:01:27.586Z,47
2018-08-18T05:11:27.953Z,47
2018-08-18T05:21:27.416Z,47
2018-08-18T05:31:27.328Z,45
2018-08-18T05:41:30.295Z,45
2018-08-18T05:51:27.188Z,45
2018-08-18T06:01:28.261Z,46
2018-08-18T06:11:28.345Z,44
2018-08-18T06:21:27.413Z,45
2018-08-18T06:31:29.070Z,46
2018-08-18T06:41:27.773Z,47
2018-08-18T06:51:27.002Z,45
2018-08-18T07:01:32.387Z,47
2018-08-18T07:11:27.374Z,47
2018-08-18T07:21:29.084Z,47
2018-08-18T07:31:27.624Z,45
2018-08-18T07:41:27.549Z,45
2018-08-18T07:51:28.058Z,45
2018-08-18T08:01:27.661Z,45
2018-08-18T08:11:29.413Z,46
2018-08-18T08:21:29.634Z,45
2018-08-18T08:31:49.010Z,47
2018-08-18T08:41:27.852Z,45
2018-08-18T08:51:33.354Z,44
2018-08-18T09:01:29.319Z,45
2018-08-18T09:11:33.070Z,46
2018-08-18T09:21:59.060Z,44
2018-08-18T09:31:43.964Z,42
2018-08-18T09:41:32.966Z,42
2018-08-18T09:51:28.882Z,43
2018-08-18T10:01:34.223Z,42
2018-08-18T10:11:33.341Z,42
2018-08-18T10:21:28.332Z,42
2018-08-18T10:31:33.396Z,42
2018-08-18T10:41:33.441Z,42
2018-08-18T10:51:28.454Z,41
2018-08-18T11:01:27.836Z,43
2018-08-18T11:11:27.938Z,41
2018-08-18T11:21:27.178Z,43
2018-08-18T11:31:27.295Z,43
2018-08-18T11:41:28.204Z,39
2018-08-18T11:51:27.265Z,39
2018-08-18T12:01:27.443Z,41
2018-08-18T12:11:28.152Z,39
2018-08-18T12:21:30.908Z,36
2018-08-18T12:31:27.196Z,40
2018-08-18T12:41:28.196Z,38
2018-08-18T12:51:27.201Z,38
2018-08-18T13:01:27.240Z,40
2018-08-18T13:11:27.416Z,42
2018-08-18T13:21:28.435Z,38
2018-08-18T13:31:27.420Z,38
2018-08-18T13:41:27.787Z,41
2018-08-18T13:51:28.906Z,39
2018-08-18T14:01:26.971Z,38
2018-08-18T14:11:28.168Z,38
2018-08-18T14:21:27.758Z,41
2018-08-18T14:31:29.151Z,37
2018-08-18T14:41:27.453Z,41
2018-08-18T14:51:28.011Z,41
2018-08-18T15:01:27.983Z,39
2018-08-18T15:11:27.025Z,38
2018-08-18T15:21:29.093Z,37
2018-08-18T15:31:27.706Z,40
2018-08-18T15:41:28.545Z,39
2018-08-18T15:51:27.617Z,38
2018-08-18T16:01:28.122Z,39
2018-08-18T16:11:27.416Z,41
2018-08-18T16:21:28.036Z,40
2018-08-18T16:31:28.185Z,37
2018-08-18T16:41:27.740Z,39
2018-08-18T16:51:28.425Z,38
2018-08-18T17:01:28.045Z,38
2018-08-18T17:11:27.494Z,41
2018-08-18T17:21:28.134Z,40
2018-08-18T17:31:27.106Z,40
2018-08-18T17:41:27.632Z,38
2018-08-18T17:51:28.974Z,37
2018-08-18T18:01:27.327Z,40
2018-08-18T18:11:27.671Z,40
2018-08-18T18:21:27.482Z,39
2018-08-18T18:31:28.129Z,38
2018-08-18T18:41:27.477Z,40
2018-08-18T18:51:27.808Z,39
2018-08-18T19:01:30.159Z,37
2018-08-18T19:11:52.667Z,37
2018-08-18T19:21:26.993Z,42
2018-08-18T19:31:27.036Z,42
2018-08-18T19:41:27.107Z,43
2018-08-18T19:51:28.515Z,38
2018-08-18T20:01:35.995Z,39
2018-08-18T20:11:27.078Z,40
2018-08-18T20:21:27.241Z,42
2018-08-18T20:31:28.348Z,39
2018-08-18T20:41:27.419Z,40
2018-08-18T20:51:27.636Z,43
2018-08-18T21:01:27.702Z,41
2018-08-18T21:11:27.726Z,44
2018-08-18T21:21:28.659Z,39
2018-08-18T21:31:28.059Z,41
2018-08-18T21:41:27.681Z,41
2018-08-18T21:51:27.672Z,43
2018-08-18T22:01:27.727Z,43
2018-08-18T22:11:29.615Z,41
2018-08-18T22:21:28.013Z,42
2018-08-18T22:31:27.007Z,45
2018-08-18T22:41:28.483Z,42
2018-08-18T22:51:28.948Z,42
2018-08-18T23:01:28.578Z,42
2018-08-18T23:11:27.493Z,45
2018-08-18T23:21:27.965Z,45
2018-08-18T23:31:28.472Z,43
2018-08-18T23:41:27.539Z,42
2018-08-18T23:51:27.390Z,46
